Wednesday, October 17, 2018, 4:12 PM GMT
Back to Local

CWIT, Saint Clothilde Automated Reporting Station

Location: , , Canada Lat: 45.167
Local Time: 4:12 PM GMT (16:12 GMT) Lon: -73.683
Time Zone: GMT Elev: 170 ft

Show me the last for .
Show Coded

Time T Td Feel RH Dir Speed Gust Alt SLP Vis Weather Sky Remarks
2018-10-17 15:00 44 40 35 85 260° 9 18 - 29.72 0 Peak wind: 23 mph (20 kts) from 260° at 37 min
1-hr Precip Total: 0.02"
2018-10-17 14:00 47 39 40 72 250° 10 21 - 29.70 0 Peak wind: 20 mph (18 kts) from 240° at 54 min
2018-10-17 13:00 48 40 41 74 250° 9 18 - 29.71 0 None
2018-10-17 12:00 49 39 45 68 250° 8 - - 29.70 0 None
2018-10-17 11:00 48 37 46 65 230° 5 - - 29.70 0 None
2018-10-17 10:00 49 35 47 57 220° 6 - - 29.70 0 None
2018-10-17 09:00 49 38 46 67 200° 6 - - 29.73 0 None
2018-10-17 08:00 46 39 - 76 170° 2 - - 29.75 0 None
2018-10-17 07:00 45 38 - 77 160° 2 - - 29.76 0 None
2018-10-17 06:00 43 37 - 78 160° 2 - - 29.79 0 None
2018-10-17 05:00 42 35 40 75 170° 3 - - 29.81 0 None
2018-10-17 04:00 41 35 - 80 140° 2 - - 29.84 0 None
2018-10-17 03:00 44 34 43 68 220° 3 - - 29.87 0 None
2018-10-17 02:00 45 35 43 68 240° 3 - - 29.88 0 None
2018-10-17 01:00 43 33 - 67 240° 2 - - 29.88 0 None
2018-10-17 00:00 44 33 - 66 210° 2 - - 29.90 0 None
2018-10-16 23:00 46 34 44 62 230° 5 - - 29.90 0 None
2018-10-16 22:00 47 31 45 54 250° 5 - - 29.90 0 None
2018-10-16 21:00 46 32 43 58 240° 5 - - 29.91 0 None
2018-10-16 20:00 46 31 42 56 260° 6 - - 29.93 0 None
2018-10-16 19:00 47 31 44 53 260° 7 - - 29.94 0 None
2018-10-16 18:00 46 31 41 55 270° 9 - - 29.96 0 Peak wind: 19 mph (17 kts) from 290° at 19 min
2018-10-16 17:00 44 30 40 57 290° 8 - - 29.99 0 Peak wind: 25 mph (22 kts) from 260° at 27 min

Support USWX by starting your Amazon purchase here.